sensor_id;sensor_type;location;lat;lon;timestamp;pressure;altitude;pressure_sealevel;temperature;humidity
40788;BME280;26497;52.494;7.546;2024-01-30T00:00:29;102056.00;;;10.43;68.90
40788;BME280;26497;52.494;7.546;2024-01-30T00:02:56;102057.50;;;10.33;68.75
40788;BME280;26497;52.494;7.546;2024-01-30T00:05:23;102057.38;;;10.28;68.63
40788;BME280;26497;52.494;7.546;2024-01-30T00:07:50;102058.25;;;10.27;68.60
40788;BME280;26497;52.494;7.546;2024-01-30T00:10:18;102056.47;;;10.26;68.66
40788;BME280;26497;52.494;7.546;2024-01-30T00:12:46;102052.03;;;10.24;68.68
40788;BME280;26497;52.494;7.546;2024-01-30T00:15:13;102056.38;;;10.22;68.51
40788;BME280;26497;52.494;7.546;2024-01-30T00:17:40;102046.69;;;10.22;68.81
40788;BME280;26497;52.494;7.546;2024-01-30T00:20:08;102041.44;;;10.22;68.75
40788;BME280;26497;52.494;7.546;2024-01-30T00:22:35;102042.28;;;10.21;68.68
40788;BME280;26497;52.494;7.546;2024-01-30T00:25:02;102044.81;;;10.16;68.46
40788;BME280;26497;52.494;7.546;2024-01-30T00:27:31;102039.34;;;10.07;68.38
40788;BME280;26497;52.494;7.546;2024-01-30T00:29:58;102039.34;;;10.09;68.10
40788;BME280;26497;52.494;7.546;2024-01-30T00:32:25;102036.72;;;10.09;67.98
40788;BME280;26497;52.494;7.546;2024-01-30T00:34:52;102041.84;;;10.02;67.79
40788;BME280;26497;52.494;7.546;2024-01-30T00:37:19;102033.63;;;9.88;67.64
40788;BME280;26497;52.494;7.546;2024-01-30T00:39:49;102038.72;;;9.82;68.18
40788;BME280;26497;52.494;7.546;2024-01-30T00:42:16;102035.16;;;9.79;67.79
40788;BME280;26497;52.494;7.546;2024-01-30T00:44:44;102035.25;;;9.83;68.25
40788;BME280;26497;52.494;7.546;2024-01-30T00:47:11;102033.38;;;9.78;67.94
40788;BME280;26497;52.494;7.546;2024-01-30T00:49:38;102028.13;;;9.79;68.19
40788;BME280;26497;52.494;7.546;2024-01-30T00:52:05;102037.09;;;9.87;68.37
40788;BME280;26497;52.494;7.546;2024-01-30T00:54:32;102036.22;;;9.87;69.47
40788;BME280;26497;52.494;7.546;2024-01-30T00:56:59;102032.00;;;9.95;69.87
40788;BME280;26497;52.494;7.546;2024-01-30T00:59:26;102024.59;;;10.17;69.61
40788;BME280;26497;52.494;7.546;2024-01-30T01:01:55;102021.44;;;10.32;69.64
40788;BME280;26497;52.494;7.546;2024-01-30T01:04:22;102021.78;;;10.46;69.34
40788;BME280;26497;52.494;7.546;2024-01-30T01:06:49;102022.84;;;10.54;69.20
40788;BME280;26497;52.494;7.546;2024-01-30T01:09:16;102019.31;;;10.54;69.42
40788;BME280;26497;52.494;7.546;2024-01-30T01:11:43;102013.47;;;10.70;69.63
40788;BME280;26497;52.494;7.546;2024-01-30T01:14:10;102025.06;;;10.77;69.16
40788;BME280;26497;52.494;7.546;2024-01-30T01:16:37;102020.78;;;10.82;69.61
40788;BME280;26497;52.494;7.546;2024-01-30T01:19:05;102020.03;;;10.89;69.65
40788;BME280;26497;52.494;7.546;2024-01-30T01:21:32;102019.06;;;10.84;70.25
40788;BME280;26497;52.494;7.546;2024-01-30T01:23:59;102013.91;;;10.90;70.92
40788;BME280;26497;52.494;7.546;2024-01-30T01:26:26;102015.03;;;11.03;70.86
40788;BME280;26497;52.494;7.546;2024-01-30T01:28:53;102016.69;;;10.98;71.52
40788;BME280;26497;52.494;7.546;2024-01-30T01:31:20;102026.00;;;11.25;71.47
40788;BME280;26497;52.494;7.546;2024-01-30T01:33:50;102014.75;;;11.37;70.94
40788;BME280;26497;52.494;7.546;2024-01-30T01:36:18;102018.47;;;11.48;70.58
40788;BME280;26497;52.494;7.546;2024-01-30T01:38:45;102022.84;;;11.45;71.22
40788;BME280;26497;52.494;7.546;2024-01-30T01:41:12;102018.75;;;11.64;70.46
40788;BME280;26497;52.494;7.546;2024-01-30T01:43:39;102016.91;;;11.58;70.75
40788;BME280;26497;52.494;7.546;2024-01-30T01:46:06;102018.78;;;11.67;70.88
40788;BME280;26497;52.494;7.546;2024-01-30T01:48:33;102022.06;;;11.52;71.41
40788;BME280;26497;52.494;7.546;2024-01-30T01:51:01;102023.97;;;11.61;71.44
40788;BME280;26497;52.494;7.546;2024-01-30T01:53:29;102021.44;;;11.67;71.29
40788;BME280;26497;52.494;7.546;2024-01-30T01:55:56;102012.69;;;11.70;71.43
40788;BME280;26497;52.494;7.546;2024-01-30T01:58:23;102012.72;;;11.73;71.42
40788;BME280;26497;52.494;7.546;2024-01-30T02:00:54;102017.16;;;11.75;71.18
40788;BME280;26497;52.494;7.546;2024-01-30T02:03:22;102015.44;;;11.77;71.51
40788;BME280;26497;52.494;7.546;2024-01-30T02:05:50;102008.53;;;11.86;70.82
40788;BME280;26497;52.494;7.546;2024-01-30T02:08:17;102005.13;;;11.93;70.64
40788;BME280;26497;52.494;7.546;2024-01-30T02:10:46;102005.00;;;11.87;70.68
40788;BME280;26497;52.494;7.546;2024-01-30T02:13:13;101999.13;;;12.05;70.50
40788;BME280;26497;52.494;7.546;2024-01-30T02:15:40;101992.22;;;12.13;69.58
40788;BME280;26497;52.494;7.546;2024-01-30T02:18:07;101996.50;;;12.03;69.90
40788;BME280;26497;52.494;7.546;2024-01-30T02:20:35;101985.13;;;12.11;69.88
40788;BME280;26497;52.494;7.546;2024-01-30T02:23:03;101993.94;;;12.09;69.85
40788;BME280;26497;52.494;7.546;2024-01-30T02:25:32;101993.19;;;12.20;69.40
40788;BME280;26497;52.494;7.546;2024-01-30T02:27:59;101992.41;;;12.27;69.12
40788;BME280;26497;52.494;7.546;2024-01-30T02:30:26;101989.75;;;12.24;68.96
40788;BME280;26497;52.494;7.546;2024-01-30T02:32:53;101984.44;;;12.26;68.76
40788;BME280;26497;52.494;7.546;2024-01-30T02:35:20;101985.19;;;12.15;68.91
40788;BME280;26497;52.494;7.546;2024-01-30T02:37:47;101980.94;;;12.27;68.92
40788;BME280;26497;52.494;7.546;2024-01-30T02:40:15;101971.13;;;12.19;68.54
40788;BME280;26497;52.494;7.546;2024-01-30T02:42:43;101972.00;;;12.18;68.52
40788;BME280;26497;52.494;7.546;2024-01-30T02:45:11;101965.06;;;12.25;68.18
40788;BME280;26497;52.494;7.546;2024-01-30T02:47:38;101968.41;;;12.12;68.55
40788;BME280;26497;52.494;7.546;2024-01-30T02:50:06;101967.50;;;12.09;68.47
40788;BME280;26497;52.494;7.546;2024-01-30T02:52:33;101966.63;;;12.12;68.86
40788;BME280;26497;52.494;7.546;2024-01-30T02:55:00;101960.59;;;12.21;68.29
40788;BME280;26497;52.494;7.546;2024-01-30T02:57:29;101956.97;;;12.13;68.51
40788;BME280;26497;52.494;7.546;2024-01-30T02:59:56;101953.31;;;12.04;68.39
40788;BME280;26497;52.494;7.546;2024-01-30T03:02:23;101954.19;;;12.03;67.99
40788;BME280;26497;52.494;7.546;2024-01-30T03:04:50;101953.31;;;12.04;67.96
40788;BME280;26497;52.494;7.546;2024-01-30T03:07:17;101955.78;;;11.95;68.29
40788;BME280;26497;52.494;7.546;2024-01-30T03:09:44;101948.63;;;11.86;68.25
40788;BME280;26497;52.494;7.546;2024-01-30T03:12:11;101945.22;;;11.95;67.88
40788;BME280;26497;52.494;7.546;2024-01-30T03:14:39;101944.13;;;11.80;68.08
40788;BME280;26497;52.494;7.546;2024-01-30T03:17:07;101941.44;;;11.76;68.07
40788;BME280;26497;52.494;7.546;2024-01-30T03:19:34;101933.41;;;11.70;68.35
40788;BME280;26497;52.494;7.546;2024-01-30T03:22:01;101942.25;;;11.73;67.66
40788;BME280;26497;52.494;7.546;2024-01-30T03:24:28;101938.50;;;11.57;68.05
40788;BME280;26497;52.494;7.546;2024-01-30T03:26:55;101936.47;;;11.42;68.90
40788;BME280;26497;52.494;7.546;2024-01-30T03:29:21;101939.31;;;11.53;68.67
40788;BME280;26497;52.494;7.546;2024-01-30T03:31:50;101934.84;;;11.49;68.69
40788;BME280;26497;52.494;7.546;2024-01-30T03:34:17;101935.72;;;11.49;68.57
40788;BME280;26497;52.494;7.546;2024-01-30T03:36:44;101937.69;;;11.61;67.51
40788;BME280;26497;52.494;7.546;2024-01-30T03:39:11;101933.03;;;11.46;67.20
40788;BME280;26497;52.494;7.546;2024-01-30T03:41:38;101931.00;;;11.30;68.00
40788;BME280;26497;52.494;7.546;2024-01-30T03:44:06;101926.63;;;11.32;67.05
40788;BME280;26497;52.494;7.546;2024-01-30T03:46:33;101925.59;;;11.20;66.72
40788;BME280;26497;52.494;7.546;2024-01-30T03:49:01;101927.09;;;11.07;66.39
40788;BME280;26497;52.494;7.546;2024-01-30T03:51:28;101926.06;;;10.98;66.81
40788;BME280;26497;52.494;7.546;2024-01-30T03:53:55;101932.09;;;10.90;66.84
40788;BME280;26497;52.494;7.546;2024-01-30T03:56:22;101917.00;;;10.83;66.96
40788;BME280;26497;52.494;7.546;2024-01-30T03:58:51;101915.09;;;10.76;67.78
40788;BME280;26497;52.494;7.546;2024-01-30T04:01:18;101917.69;;;10.73;68.50
40788;BME280;26497;52.494;7.546;2024-01-30T04:03:45;101922.22;;;10.80;68.13
40788;BME280;26497;52.494;7.546;2024-01-30T04:06:13;101913.56;;;10.87;67.65
40788;BME280;26497;52.494;7.546;2024-01-30T04:08:40;101919.63;;;10.83;67.56
40788;BME280;26497;52.494;7.546;2024-01-30T04:11:07;101911.72;;;10.85;67.32
40788;BME280;26497;52.494;7.546;2024-01-30T04:13:34;101917.63;;;10.71;68.15
40788;BME280;26497;52.494;7.546;2024-01-30T04:16:02;101912.94;;;10.55;69.79
40788;BME280;26497;52.494;7.546;2024-01-30T04:18:30;101908.41;;;10.47;70.09
40788;BME280;26497;52.494;7.546;2024-01-30T04:20:57;101909.53;;;10.60;69.45
40788;BME280;26497;52.494;7.546;2024-01-30T04:23:26;101905.03;;;10.55;70.05
40788;BME280;26497;52.494;7.546;2024-01-30T04:25:53;101895.41;;;10.57;70.18
40788;BME280;26497;52.494;7.546;2024-01-30T04:28:20;101896.50;;;10.70;69.33
40788;BME280;26497;52.494;7.546;2024-01-30T04:30:47;101898.06;;;10.58;70.14
40788;BME280;26497;52.494;7.546;2024-01-30T04:33:14;101897.13;;;10.56;70.60
40788;BME280;26497;52.494;7.546;2024-01-30T04:35:41;101897.31;;;10.67;70.58
40788;BME280;26497;52.494;7.546;2024-01-30T04:38:08;101888.44;;;10.60;70.63
40788;BME280;26497;52.494;7.546;2024-01-30T04:40:36;101882.41;;;10.68;71.21
40788;BME280;26497;52.494;7.546;2024-01-30T04:43:03;101883.44;;;10.76;71.18
40788;BME280;26497;52.494;7.546;2024-01-30T04:45:30;101880.22;;;10.93;70.98
40788;BME280;26497;52.494;7.546;2024-01-30T04:47:57;101875.06;;;11.00;70.58
40788;BME280;26497;52.494;7.546;2024-01-30T04:50:24;101881.25;;;11.01;70.47
40788;BME280;26497;52.494;7.546;2024-01-30T04:52:52;101873.25;;;10.98;70.59
40788;BME280;26497;52.494;7.546;2024-01-30T04:55:19;101881.31;;;11.05;70.44
40788;BME280;26497;52.494;7.546;2024-01-30T04:57:47;101893.44;;;10.94;70.91
40788;BME280;26497;52.494;7.546;2024-01-30T05:00:15;101880.97;;;10.85;71.26
40788;BME280;26497;52.494;7.546;2024-01-30T05:02:42;101887.84;;;10.77;71.43
40788;BME280;26497;52.494;7.546;2024-01-30T05:05:09;101884.78;;;11.03;71.08
40788;BME280;26497;52.494;7.546;2024-01-30T05:07:36;101892.81;;;11.09;70.39
40788;BME280;26497;52.494;7.546;2024-01-30T05:10:04;101892.06;;;11.18;69.72
40788;BME280;26497;52.494;7.546;2024-01-30T05:12:31;101890.28;;;11.17;69.45
40788;BME280;26497;52.494;7.546;2024-01-30T05:14:59;101902.56;;;11.13;69.31
40788;BME280;26497;52.494;7.546;2024-01-30T05:17:26;101890.84;;;10.97;69.80
40788;BME280;26497;52.494;7.546;2024-01-30T05:19:53;101888.50;;;11.14;69.09
40788;BME280;26497;52.494;7.546;2024-01-30T05:22:20;101894.16;;;10.85;69.76
40788;BME280;26497;52.494;7.546;2024-01-30T05:24:47;101881.81;;;10.84;69.85
40788;BME280;26497;52.494;7.546;2024-01-30T05:27:14;101885.31;;;10.83;70.21
40788;BME280;26497;52.494;7.546;2024-01-30T05:29:41;101888.91;;;10.87;69.90
40788;BME280;26497;52.494;7.546;2024-01-30T05:32:09;101877.47;;;10.86;70.20
40788;BME280;26497;52.494;7.546;2024-01-30T05:34:37;101879.25;;;10.89;69.74
40788;BME280;26497;52.494;7.546;2024-01-30T05:37:04;101876.50;;;10.81;69.87
40788;BME280;26497;52.494;7.546;2024-01-30T05:39:31;101883.06;;;11.05;69.25
40788;BME280;26497;52.494;7.546;2024-01-30T05:41:58;101871.59;;;11.03;69.26
40788;BME280;26497;52.494;7.546;2024-01-30T05:44:25;101870.41;;;10.87;70.02
40788;BME280;26497;52.494;7.546;2024-01-30T05:46:52;101877.03;;;11.12;69.46
40788;BME280;26497;52.494;7.546;2024-01-30T05:49:21;101867.03;;;10.94;70.04
40788;BME280;26497;52.494;7.546;2024-01-30T05:51:48;101867.34;;;11.11;69.24
40788;BME280;26497;52.494;7.546;2024-01-30T05:54:15;101868.22;;;11.12;69.94
40788;BME280;26497;52.494;7.546;2024-01-30T05:56:42;101863.84;;;11.14;69.65
40788;BME280;26497;52.494;7.546;2024-01-30T05:59:08;101860.94;;;10.97;70.33
40788;BME280;26497;52.494;7.546;2024-01-30T06:01:36;101868.97;;;11.04;70.60
40788;BME280;26497;52.494;7.546;2024-01-30T06:04:03;101867.50;;;11.22;69.98
40788;BME280;26497;52.494;7.546;2024-01-30T06:06:32;101869.44;;;11.34;69.31
40788;BME280;26497;52.494;7.546;2024-01-30T06:08:59;101873.69;;;11.24;69.58
40788;BME280;26497;52.494;7.546;2024-01-30T06:11:26;101871.19;;;11.33;68.95
40788;BME280;26497;52.494;7.546;2024-01-30T06:13:53;101870.94;;;11.16;69.61
40788;BME280;26497;52.494;7.546;2024-01-30T06:16:20;101880.81;;;11.30;68.71
40788;BME280;26497;52.494;7.546;2024-01-30T06:18:48;101874.81;;;11.40;68.67
40788;BME280;26497;52.494;7.546;2024-01-30T06:21:15;101870.47;;;11.44;68.10
40788;BME280;26497;52.494;7.546;2024-01-30T06:23:43;101869.22;;;11.20;69.05
40788;BME280;26497;52.494;7.546;2024-01-30T06:26:10;101864.78;;;11.17;69.13
40788;BME280;26497;52.494;7.546;2024-01-30T06:28:37;101865.50;;;11.09;69.78
40788;BME280;26497;52.494;7.546;2024-01-30T06:31:04;101871.59;;;11.03;70.06
40788;BME280;26497;52.494;7.546;2024-01-30T06:33:31;101866.53;;;11.15;69.92
40788;BME280;26497;52.494;7.546;2024-01-30T06:35:58;101868.91;;;11.01;70.72
40788;BME280;26497;52.494;7.546;2024-01-30T06:38:25;101860.31;;;11.13;70.92
40788;BME280;26497;52.494;7.546;2024-01-30T06:40:54;101862.47;;;11.38;70.04
40788;BME280;26497;52.494;7.546;2024-01-30T06:43:22;101865.91;;;11.33;69.80
40788;BME280;26497;52.494;7.546;2024-01-30T06:45:49;101864.91;;;11.24;70.51
40788;BME280;26497;52.494;7.546;2024-01-30T06:48:17;101859.69;;;11.30;70.86
40788;BME280;26497;52.494;7.546;2024-01-30T06:50:44;101855.63;;;11.54;69.93
40788;BME280;26497;52.494;7.546;2024-01-30T06:53:11;101857.69;;;11.73;69.57
40788;BME280;26497;52.494;7.546;2024-01-30T06:55:38;101858.59;;;11.75;68.97
40788;BME280;26497;52.494;7.546;2024-01-30T06:58:07;101871.81;;;11.75;68.77
40788;BME280;26497;52.494;7.546;2024-01-30T07:00:34;101871.06;;;11.84;68.84
40788;BME280;26497;52.494;7.546;2024-01-30T07:03:01;101869.38;;;11.91;68.57
40788;BME280;26497;52.494;7.546;2024-01-30T07:05:28;101865.88;;;11.92;68.29
40788;BME280;26497;52.494;7.546;2024-01-30T07:07:55;101859.88;;;12.04;67.48
40788;BME280;26497;52.494;7.546;2024-01-30T07:10:22;101871.25;;;11.98;67.79
40788;BME280;26497;52.494;7.546;2024-01-30T07:12:49;101866.91;;;12.00;67.29
40788;BME280;26497;52.494;7.546;2024-01-30T07:15:18;101869.16;;;11.75;68.33
40788;BME280;26497;52.494;7.546;2024-01-30T07:17:46;101863.97;;;11.82;68.39
40788;BME280;26497;52.494;7.546;2024-01-30T07:20:13;101859.94;;;12.10;67.66
40788;BME280;26497;52.494;7.546;2024-01-30T07:22:40;101865.13;;;12.01;67.13
40788;BME280;26497;52.494;7.546;2024-01-30T07:25:08;101865.16;;;12.02;66.61
40788;BME280;26497;52.494;7.546;2024-01-30T07:27:35;101866.19;;;12.14;66.16
40788;BME280;26497;52.494;7.546;2024-01-30T07:30:02;101869.34;;;11.88;67.07
40788;BME280;26497;52.494;7.546;2024-01-30T07:32:31;101857.16;;;11.99;66.75
40788;BME280;26497;52.494;7.546;2024-01-30T07:34:58;101869.47;;;11.97;66.87
40788;BME280;26497;52.494;7.546;2024-01-30T07:37:25;101859.91;;;12.05;66.69
40788;BME280;26497;52.494;7.546;2024-01-30T07:39:52;101866.09;;;12.07;66.99
40788;BME280;26497;52.494;7.546;2024-01-30T07:42:19;101865.94;;;11.98;67.10
40788;BME280;26497;52.494;7.546;2024-01-30T07:44:46;101869.66;;;12.09;66.96
40788;BME280;26497;52.494;7.546;2024-01-30T07:47:13;101865.34;;;12.19;65.97
40788;BME280;26497;52.494;7.546;2024-01-30T07:49:42;101872.06;;;11.94;67.05
40788;BME280;26497;52.494;7.546;2024-01-30T07:52:09;101863.47;;;12.07;66.63
40788;BME280;26497;52.494;7.546;2024-01-30T07:54:39;101869.47;;;11.97;67.10
40788;BME280;26497;52.494;7.546;2024-01-30T07:57:06;101872.88;;;11.90;67.39
40788;BME280;26497;52.494;7.546;2024-01-30T07:59:33;101872.09;;;11.99;67.54
40788;BME280;26497;52.494;7.546;2024-01-30T08:02:00;101880.19;;;12.06;66.70
40788;BME280;26497;52.494;7.546;2024-01-30T08:04:27;101876.00;;;12.24;66.28
40788;BME280;26497;52.494;7.546;2024-01-30T08:06:55;101867.19;;;12.27;66.10
40788;BME280;26497;52.494;7.546;2024-01-30T08:09:22;101870.75;;;12.27;66.37
40788;BME280;26497;52.494;7.546;2024-01-30T08:11:49;101875.22;;;12.31;65.61
40788;BME280;26497;52.494;7.546;2024-01-30T08:14:16;101876.13;;;12.33;65.87
40788;BME280;26497;52.494;7.546;2024-01-30T08:16:43;101873.41;;;12.27;66.03
40788;BME280;26497;52.494;7.546;2024-01-30T08:19:10;101870.75;;;12.29;66.09
40788;BME280;26497;52.494;7.546;2024-01-30T08:21:37;101871.81;;;12.43;65.49
40788;BME280;26497;52.494;7.546;2024-01-30T08:24:07;101872.78;;;12.51;65.18
40788;BME280;26497;52.494;7.546;2024-01-30T08:26:34;101878.03;;;12.48;65.14
40788;BME280;26497;52.494;7.546;2024-01-30T08:29:02;101883.22;;;12.39;65.52
40788;BME280;26497;52.494;7.546;2024-01-30T08:31:29;101882.63;;;12.66;64.67
40788;BME280;26497;52.494;7.546;2024-01-30T08:33:56;101878.38;;;12.79;64.01
40788;BME280;26497;52.494;7.546;2024-01-30T08:36:25;101869.34;;;12.63;64.36
40788;BME280;26497;52.494;7.546;2024-01-30T08:38:52;101881.81;;;12.74;64.13
40788;BME280;26497;52.494;7.546;2024-01-30T08:41:20;101877.59;;;12.90;63.69
40788;BME280;26497;52.494;7.546;2024-01-30T08:43:48;101877.59;;;12.93;63.44
40788;BME280;26497;52.494;7.546;2024-01-30T08:46:17;101879.44;;;13.00;63.68
40788;BME280;26497;52.494;7.546;2024-01-30T08:48:44;101879.50;;;13.08;62.60
40788;BME280;26497;52.494;7.546;2024-01-30T08:51:11;101876.72;;;12.94;63.24
40788;BME280;26497;52.494;7.546;2024-01-30T08:53:39;101879.47;;;13.03;63.25
40788;BME280;26497;52.494;7.546;2024-01-30T08:56:07;101882.94;;;12.97;63.33
40788;BME280;26497;52.494;7.546;2024-01-30T08:58:35;101886.31;;;12.79;64.13
40788;BME280;26497;52.494;7.546;2024-01-30T09:01:02;101886.44;;;12.96;63.45
40788;BME280;26497;52.494;7.546;2024-01-30T09:03:31;101881.28;;;13.12;62.90
40788;BME280;26497;52.494;7.546;2024-01-30T09:05:58;101883.16;;;13.25;62.49
40788;BME280;26497;52.494;7.546;2024-01-30T09:08:25;101880.38;;;13.05;63.05
40788;BME280;26497;52.494;7.546;2024-01-30T09:10:52;101881.41;;;13.27;62.28
40788;BME280;26497;52.494;7.546;2024-01-30T09:13:20;101879.75;;;13.39;62.19
40788;BME280;26497;52.494;7.546;2024-01-30T09:15:48;101879.66;;;13.30;62.74
40788;BME280;26497;52.494;7.546;2024-01-30T09:18:15;101872.81;;;13.53;62.24
40788;BME280;26497;52.494;7.546;2024-01-30T09:20:42;101878.09;;;13.50;62.32
40788;BME280;26497;52.494;7.546;2024-01-30T09:23:11;101879.88;;;13.56;62.25
40788;BME280;26497;52.494;7.546;2024-01-30T09:25:38;101874.72;;;13.81;61.49
40788;BME280;26497;52.494;7.546;2024-01-30T09:28:05;101879.22;;;13.99;60.84
40788;BME280;26497;52.494;7.546;2024-01-30T09:30:32;101885.41;;;13.95;60.74
40788;BME280;26497;52.494;7.546;2024-01-30T09:33:01;101885.50;;;14.15;60.46
40788;BME280;26497;52.494;7.546;2024-01-30T09:35:28;101879.41;;;14.35;59.60
40788;BME280;26497;52.494;7.546;2024-01-30T09:37:55;101874.94;;;14.29;59.74
40788;BME280;26497;52.494;7.546;2024-01-30T09:40:23;101884.75;;;14.52;59.10
40788;BME280;26497;52.494;7.546;2024-01-30T09:42:51;101883.97;;;14.84;58.50
40788;BME280;26497;52.494;7.546;2024-01-30T09:45:19;101891.06;;;15.14;57.57
40788;BME280;26497;52.494;7.546;2024-01-30T09:47:46;101885.75;;;15.19;57.10
40788;BME280;26497;52.494;7.546;2024-01-30T09:50:15;101883.06;;;15.45;56.92
40788;BME280;26497;52.494;7.546;2024-01-30T09:52:44;101888.41;;;15.30;56.70
40788;BME280;26497;52.494;7.546;2024-01-30T09:55:12;101881.31;;;15.26;56.72
40788;BME280;26497;52.494;7.546;2024-01-30T09:57:41;101884.88;;;15.23;56.62
40788;BME280;26497;52.494;7.546;2024-01-30T10:00:10;101883.94;;;15.43;56.49
40788;BME280;26497;52.494;7.546;2024-01-30T10:02:38;101880.38;;;15.50;56.18
40788;BME280;26497;52.494;7.546;2024-01-30T10:05:08;101882.16;;;15.60;55.95
40788;BME280;26497;52.494;7.546;2024-01-30T10:08:10;101891.94;;;15.41;56.27
40788;BME280;26497;52.494;7.546;2024-01-30T10:10:42;101883.97;;;15.38;56.47
40788;BME280;26497;52.494;7.546;2024-01-30T10:13:14;101879.53;;;15.50;56.84
40788;BME280;26497;52.494;7.546;2024-01-30T10:15:42;101885.69;;;15.62;56.19
40788;BME280;26497;52.494;7.546;2024-01-30T10:18:10;101892.78;;;15.51;56.45
40788;BME280;26497;52.494;7.546;2024-01-30T10:20:38;101891.88;;;15.77;55.52
40788;BME280;26497;52.494;7.546;2024-01-30T10:23:05;101894.56;;;15.60;55.95
40788;BME280;26497;52.494;7.546;2024-01-30T10:25:35;101890.16;;;15.56;56.10
40788;BME280;26497;52.494;7.546;2024-01-30T10:28:03;101892.78;;;15.67;55.80
40788;BME280;26497;52.494;7.546;2024-01-30T10:30:31;101891.00;;;15.67;55.72
40788;BME280;26497;52.494;7.546;2024-01-30T10:32:58;101891.00;;;15.69;55.94
40788;BME280;26497;52.494;7.546;2024-01-30T10:35:25;101897.19;;;15.80;55.84
40788;BME280;26497;52.494;7.546;2024-01-30T10:37:52;101894.47;;;16.00;55.35
40788;BME280;26497;52.494;7.546;2024-01-30T10:40:24;101894.47;;;16.03;55.27
40788;BME280;26497;52.494;7.546;2024-01-30T10:42:55;101883.75;;;16.27;54.73
40788;BME280;26497;52.494;7.546;2024-01-30T10:45:22;101885.41;;;16.49;54.09
40788;BME280;26497;52.494;7.546;2024-01-30T10:47:50;101889.75;;;16.64;53.81
40788;BME280;26497;52.494;7.546;2024-01-30T10:50:17;101893.16;;;16.84;53.43
40788;BME280;26497;52.494;7.546;2024-01-30T10:52:44;101895.59;;;17.18;52.33
40788;BME280;26497;52.494;7.546;2024-01-30T10:55:12;101894.53;;;17.41;51.56
40788;BME280;26497;52.494;7.546;2024-01-30T10:57:40;101885.78;;;17.23;51.83
40788;BME280;26497;52.494;7.546;2024-01-30T11:00:10;101891.88;;;17.37;51.38
40788;BME280;26497;52.494;7.546;2024-01-30T11:02:39;101895.63;;;17.16;52.12
40788;BME280;26497;52.494;7.546;2024-01-30T11:05:08;101893.03;;;17.05;52.40
40788;BME280;26497;52.494;7.546;2024-01-30T11:07:35;101881.16;;;17.44;52.16
40788;BME280;26497;52.494;7.546;2024-01-30T11:10:03;101886.44;;;17.48;52.25
40788;BME280;26497;52.494;7.546;2024-01-30T11:12:32;101886.19;;;17.73;52.43
40788;BME280;26497;52.494;7.546;2024-01-30T11:15:04;101891.78;;;17.50;52.81
40788;BME280;26497;52.494;7.546;2024-01-30T11:17:50;101884.00;;;17.23;53.87
40788;BME280;26497;52.494;7.546;2024-01-30T11:20:20;101884.91;;;17.24;54.06
40788;BME280;26497;52.494;7.546;2024-01-30T11:22:48;101880.53;;;17.14;54.61
40788;BME280;26497;52.494;7.546;2024-01-30T11:25:15;101880.63;;;17.03;55.31
40788;BME280;26497;52.494;7.546;2024-01-30T11:27:42;101877.88;;;17.14;54.93
40788;BME280;26497;52.494;7.546;2024-01-30T11:30:10;101884.22;;;16.94;55.48
40788;BME280;26497;52.494;7.546;2024-01-30T11:32:37;101880.69;;;16.97;55.45
40788;BME280;26497;52.494;7.546;2024-01-30T11:35:06;101873.56;;;16.92;55.95
40788;BME280;26497;52.494;7.546;2024-01-30T11:37:32;101870.50;;;17.42;55.05
40788;BME280;26497;52.494;7.546;2024-01-30T11:40:04;101883.91;;;17.34;54.76
40788;BME280;26497;52.494;7.546;2024-01-30T11:42:31;101886.56;;;17.37;54.35
40788;BME280;26497;52.494;7.546;2024-01-30T11:44:59;101882.16;;;17.32;54.53
40788;BME280;26497;52.494;7.546;2024-01-30T11:47:28;101879.34;;;17.49;54.34
40788;BME280;26497;52.494;7.546;2024-01-30T11:49:55;101873.28;;;17.31;54.76
40788;BME280;26497;52.494;7.546;2024-01-30T11:52:23;101872.25;;;17.45;54.36
40788;BME280;26497;52.494;7.546;2024-01-30T11:54:50;101877.69;;;17.35;54.65
40788;BME280;26497;52.494;7.546;2024-01-30T11:57:17;101864.31;;;17.37;54.79
40788;BME280;26497;52.494;7.546;2024-01-30T11:59:44;101873.31;;;17.27;55.11
40788;BME280;26497;52.494;7.546;2024-01-30T12:02:15;101866.25;;;17.22;55.41
40788;BME280;26497;52.494;7.546;2024-01-30T12:04:42;101880.25;;;17.43;55.40
40788;BME280;26497;52.494;7.546;2024-01-30T12:07:09;101874.94;;;17.43;55.29
40788;BME280;26497;52.494;7.546;2024-01-30T12:09:38;101872.53;;;17.18;55.77
40788;BME280;26497;52.494;7.546;2024-01-30T12:12:06;101871.69;;;17.13;55.94
40788;BME280;26497;52.494;7.546;2024-01-30T12:14:37;101868.34;;;16.80;57.26
40788;BME280;26497;52.494;7.546;2024-01-30T12:17:05;101868.09;;;17.17;56.38
40788;BME280;26497;52.494;7.546;2024-01-30T12:19:33;101878.84;;;17.05;56.71
40788;BME280;26497;52.494;7.546;2024-01-30T12:22:00;101871.94;;;16.68;58.08
40788;BME280;26497;52.494;7.546;2024-01-30T12:24:28;101867.28;;;17.06;57.20
40788;BME280;26497;52.494;7.546;2024-01-30T12:26:58;101874.19;;;17.25;56.63
40788;BME280;26497;52.494;7.546;2024-01-30T12:29:25;101866.50;;;16.87;57.36
40788;BME280;26497;52.494;7.546;2024-01-30T12:31:53;101871.16;;;16.55;58.10
40788;BME280;26497;52.494;7.546;2024-01-30T12:34:20;101875.66;;;16.48;58.75
40788;BME280;26497;52.494;7.546;2024-01-30T12:36:47;101866.66;;;16.63;58.50
40788;BME280;26497;52.494;7.546;2024-01-30T12:39:15;101874.53;;;16.80;57.32
40788;BME280;26497;52.494;7.546;2024-01-30T12:41:42;101876.53;;;16.50;58.41
40788;BME280;26497;52.494;7.546;2024-01-30T12:44:11;101870.28;;;16.55;58.40
40788;BME280;26497;52.494;7.546;2024-01-30T12:46:40;101864.88;;;16.64;57.88
40788;BME280;26497;52.494;7.546;2024-01-30T12:49:07;101859.34;;;17.00;57.17
40788;BME280;26497;52.494;7.546;2024-01-30T12:51:34;101853.84;;;17.21;56.04